Time;durP1;ratioP1;P1;durP2;ratioP2;P2;SDS_P1;SDS_P2;PMS_P1;PMS_P2;Temp;Humidity;BMP_temperature;BMP_pressure;BME280_temperature;BME280_humidity;BME280_pressure;Samples;Min_cycle;Max_cycle;Signal;HPM_P1;HPM_P2
2023/01/22 00:01:28;;;;;;;36.40;30.55;;;-1.90;99.90;;;;;;4988512;28;20042;-77
2023/01/22 00:03:54;;;;;;;36.75;26.88;;;-1.90;99.90;;;;;;4972219;28;20031;-77
2023/01/22 00:06:22;;;;;;;32.65;29.25;;;-2.00;99.90;;;;;;5006038;28;20034;-78
2023/01/22 00:08:48;;;;;;;40.63;30.15;;;-2.10;99.90;;;;;;5005865;28;20094;-78
2023/01/22 00:11:15;;;;;;;35.10;30.02;;;-2.10;99.90;;;;;;5005893;28;20117;-78
2023/01/22 00:13:41;;;;;;;32.90;28.00;;;-2.20;99.90;;;;;;5005949;28;20056;-77
2023/01/22 00:16:09;;;;;;;36.00;29.25;;;-2.20;99.90;;;;;;5004490;28;20509;-78
2023/01/22 00:18:34;;;;;;;37.80;31.30;;;-2.20;99.90;;;;;;4988044;28;20061;-77
2023/01/22 00:21:00;;;;;;;43.38;33.50;;;-2.30;99.90;;;;;;5005942;28;20448;-77
2023/01/22 00:23:26;;;;;;;42.22;31.00;;;-2.20;99.90;;;;;;5005748;28;20038;-77
2023/01/22 00:26:01;;;;;;;41.70;31.08;;;-2.10;99.90;;;;;;5008026;28;20042;-77
2023/01/22 00:28:27;;;;;;;41.67;32.17;;;-2.00;99.90;;;;;;5009311;28;20108;-77
2023/01/22 00:30:58;;;;;;;45.88;32.45;;;-1.90;99.90;;;;;;5008116;28;20096;-78
2023/01/22 00:33:24;;;;;;;46.03;33.75;;;-1.80;99.90;;;;;;5009002;28;20117;-78
2023/01/22 00:35:49;;;;;;;45.90;38.00;;;-1.80;99.90;;;;;;5007935;28;20389;-77
2023/01/22 00:38:15;;;;;;;46.65;37.08;;;-1.70;99.90;;;;;;5007828;28;20041;-77
2023/01/22 00:40:41;;;;;;;52.85;35.55;;;-1.60;99.90;;;;;;5007706;28;20446;-78
2023/01/22 00:43:07;;;;;;;55.80;36.15;;;-1.60;99.90;;;;;;5007942;28;20026;-78
2023/01/22 00:45:35;;;;;;;45.08;35.85;;;-1.60;99.90;;;;;;4991518;28;20137;-77
2023/01/22 00:48:01;;;;;;;49.05;35.95;;;-1.50;99.90;;;;;;5003524;28;20045;-77
2023/01/22 00:50:28;;;;;;;39.47;31.92;;;-1.50;99.90;;;;;;4991457;28;20098;-78
2023/01/22 00:52:54;;;;;;;52.17;39.78;;;-1.40;99.90;;;;;;5008942;28;20037;-78
2023/01/22 00:55:20;;;;;;;49.80;37.40;;;-1.30;99.90;;;;;;5024024;28;20037;-78
2023/01/22 00:57:46;;;;;;;50.33;37.17;;;-1.30;99.90;;;;;;5007593;28;20026;-77
2023/01/22 01:00:16;;;;;;;51.85;40.55;;;-1.20;99.90;;;;;;4991215;28;20094;-77
2023/01/22 01:05:30;;;;;;;40.70;34.00;;;-1.20;99.90;;;;;;5007432;28;20038;-78
2023/01/22 01:07:56;;;;;;;40.90;33.78;;;-1.20;99.90;;;;;;5023523;28;20030;-77
2023/01/22 01:10:21;;;;;;;49.75;33.20;;;-1.30;99.90;;;;;;5008746;28;20381;-78
2023/01/22 01:12:47;;;;;;;35.95;30.65;;;-1.40;99.90;;;;;;5007112;28;20110;-78
2023/01/22 01:15:13;;;;;;;32.58;27.83;;;-1.50;99.90;;;;;;5008513;28;20026;-77
2023/01/22 01:17:39;;;;;;;33.97;30.35;;;-1.60;99.90;;;;;;5006829;28;20038;-78
2023/01/22 01:20:05;;;;;;;40.60;30.60;;;-1.70;99.90;;;;;;5007077;28;20057;-78
2023/01/22 01:22:31;;;;;;;38.53;30.80;;;-1.70;99.90;;;;;;4991074;28;20042;-77
2023/01/22 01:24:56;;;;;;;37.75;29.13;;;-1.80;99.90;;;;;;5006862;28;20064;-77
2023/01/22 01:27:23;;;;;;;38.58;29.27;;;-1.90;99.90;;;;;;5023046;28;20046;-77
2023/01/22 01:29:49;;;;;;;35.78;30.70;;;-1.90;99.90;;;;;;5006944;28;20030;-77
2023/01/22 01:32:15;;;;;;;33.72;30.17;;;-1.90;99.90;;;;;;5006675;28;20032;-78
2023/01/22 01:34:42;;;;;;;41.28;33.10;;;-2.00;99.90;;;;;;4987462;28;20023;-78
2023/01/22 01:37:08;;;;;;;41.05;33.10;;;-1.90;99.90;;;;;;4970044;28;20049;-78
2023/01/22 01:39:34;;;;;;;41.75;34.63;;;-2.00;99.90;;;;;;4987245;28;20421;-78
2023/01/22 01:41:59;;;;;;;39.47;31.33;;;-2.00;99.90;;;;;;4988431;28;20085;-78
2023/01/22 01:44:29;;;;;;;39.00;28.25;;;-2.00;99.90;;;;;;4988563;28;20050;-78
2023/01/22 01:47:05;;;;;;;37.38;31.52;;;-2.10;99.90;;;;;;4989326;28;20041;-78
2023/01/22 01:49:37;;;;;;;44.17;34.63;;;-2.10;99.90;;;;;;4988013;28;20089;-78
2023/01/22 01:52:08;;;;;;;45.42;33.85;;;-2.10;99.90;;;;;;4997817;28;20026;-78
2023/01/22 01:54:35;;;;;;;38.45;33.13;;;-2.10;99.90;;;;;;4998088;28;20019;-78
2023/01/22 01:57:09;;;;;;;43.88;33.28;;;-2.10;99.90;;;;;;5005666;28;20477;-78
2023/01/22 01:59:36;;;;;;;47.65;33.47;;;-2.10;99.90;;;;;;5006507;28;20125;-78
2023/01/22 02:02:02;;;;;;;42.63;32.15;;;-2.00;99.90;;;;;;5007418;28;20049;-77
2023/01/22 02:04:28;;;;;;;43.92;31.60;;;-2.00;99.90;;;;;;5007610;28;20034;-78
2023/01/22 02:06:55;;;;;;;40.83;31.95;;;-2.10;99.90;;;;;;4990082;28;20042;-78
2023/01/22 02:09:21;;;;;;;36.25;31.58;;;-2.10;99.90;;;;;;5006124;28;20043;-78
2023/01/22 02:11:50;;;;;;;33.45;29.52;;;-2.10;99.90;;;;;;5002828;28;20019;-78
2023/01/22 02:14:26;;;;;;;33.55;28.85;;;-2.20;99.90;;;;;;5002633;28;20035;-78
2023/01/22 02:17:10;;;;;;;35.15;29.63;;;-2.30;99.90;;;;;;5005920;28;20038;-78
2023/01/22 02:19:37;;;;;;;32.95;28.73;;;-2.30;99.90;;;;;;5006039;28;20057;-78
2023/01/22 02:22:09;;;;;;;33.45;29.33;;;-2.20;99.90;;;;;;5005659;28;20034;-78
2023/01/22 02:24:36;;;;;;;33.05;29.48;;;-2.10;99.90;;;;;;5007317;28;20030;-78
2023/01/22 02:27:01;;;;;;;35.10;30.23;;;-2.00;99.90;;;;;;4989514;28;20034;-78
2023/01/22 02:29:28;;;;;;;40.10;33.72;;;-1.90;99.90;;;;;;5005817;28;20041;-78
2023/01/22 02:31:54;;;;;;;35.67;30.77;;;-1.80;99.90;;;;;;4989613;28;20035;-78
2023/01/22 02:34:23;;;;;;;38.47;31.85;;;-1.70;99.90;;;;;;4989492;28;20026;-78
2023/01/22 02:36:50;;;;;;;39.40;35.35;;;-1.70;99.90;;;;;;5002099;28;20042;-78
2023/01/22 02:39:16;;;;;;;43.47;32.50;;;-1.60;99.90;;;;;;4987364;28;20055;-78
2023/01/22 02:41:43;;;;;;;42.00;34.17;;;-1.50;99.90;;;;;;4987468;28;20101;-78
2023/01/22 02:44:10;;;;;;;38.30;34.33;;;-1.50;99.90;;;;;;4986102;28;20090;-78
2023/01/22 02:46:37;;;;;;;43.95;31.10;;;-1.40;99.90;;;;;;4986169;28;20242;-78
2023/01/22 02:49:03;;;;;;;43.03;33.83;;;-1.40;99.90;;;;;;5000548;28;20038;-78
2023/01/22 02:51:31;;;;;;;42.20;33.05;;;-1.30;99.90;;;;;;5004750;28;20397;-78
2023/01/22 02:53:58;;;;;;;37.78;33.10;;;-1.30;99.90;;;;;;5005745;28;20026;-78
2023/01/22 02:56:23;;;;;;;36.13;32.25;;;-1.20;99.90;;;;;;5005268;28;20069;-78
2023/01/22 02:58:49;;;;;;;37.28;31.98;;;-1.20;99.90;;;;;;5005595;28;20497;-78
2023/01/22 03:01:24;;;;;;;32.53;29.10;;;-1.10;99.90;;;;;;4989386;28;20041;-78
2023/01/22 03:04:09;;;;;;;36.45;32.55;;;-1.10;99.90;;;;;;5005168;28;20030;-78
2023/01/22 03:06:40;;;;;;;37.25;29.85;;;-1.10;99.90;;;;;;5006173;28;20030;-78
2023/01/22 03:09:07;;;;;;;38.88;30.33;;;-1.10;99.90;;;;;;5005265;28;20026;-78
2023/01/22 03:11:37;;;;;;;35.35;30.95;;;-1.00;99.90;;;;;;5005405;28;20023;-78
2023/01/22 03:22:22;;;;;;;35.90;28.00;;;-1.20;99.90;;;;;;4991493;28;20042;-78
2023/01/22 03:24:51;;;;;;;36.83;27.48;;;-1.20;99.90;;;;;;4988936;28;20042;-78
2023/01/22 03:27:23;;;;;;;32.20;28.23;;;-1.20;99.90;;;;;;5004827;28;20400;-78
2023/01/22 03:29:49;;;;;;;29.48;26.33;;;-1.10;99.90;;;;;;5005095;28;20026;-78
2023/01/22 03:32:18;;;;;;;31.25;25.67;;;-1.20;99.90;;;;;;5005008;28;20034;-78
2023/01/22 03:34:45;;;;;;;29.42;25.52;;;-1.20;99.90;;;;;;4988385;28;20131;-78
2023/01/22 03:37:11;;;;;;;27.88;24.05;;;-1.20;99.90;;;;;;5005100;28;20026;-78
2023/01/22 03:39:40;;;;;;;29.00;24.27;;;-1.20;99.90;;;;;;4988841;28;20050;-78
2023/01/22 03:42:06;;;;;;;29.77;25.23;;;-1.20;99.90;;;;;;5004984;28;20030;-78
2023/01/22 03:44:33;;;;;;;29.77;25.20;;;-1.20;99.90;;;;;;4988892;28;20374;-78
2023/01/22 03:46:59;;;;;;;24.63;21.70;;;-1.30;99.90;;;;;;5004660;28;20041;-78
2023/01/22 03:49:25;;;;;;;30.23;27.02;;;-1.30;99.90;;;;;;4988264;28;20023;-78
2023/01/22 03:51:52;;;;;;;30.83;26.05;;;-1.40;99.90;;;;;;5004933;28;20034;-78
2023/01/22 03:54:18;;;;;;;28.33;24.95;;;-1.50;99.90;;;;;;5004925;28;20110;-78
2023/01/22 03:56:44;;;;;;;30.27;26.85;;;-1.50;99.90;;;;;;5004738;28;20031;-78
2023/01/22 03:59:22;;;;;;;31.33;26.02;;;-1.60;99.90;;;;;;5005082;28;20026;-78
2023/01/22 04:01:49;;;;;;;31.13;27.83;;;-1.60;99.90;;;;;;5024811;28;20042;-78
2023/01/22 04:04:15;;;;;;;29.25;24.95;;;-1.70;99.90;;;;;;5008376;28;20033;-78
2023/01/22 04:06:42;;;;;;;28.67;25.67;;;-1.70;99.90;;;;;;5008486;28;20036;-78
2023/01/22 04:09:08;;;;;;;28.08;25.05;;;-1.70;99.90;;;;;;5009766;28;20054;-78
2023/01/22 04:11:42;;;;;;;33.38;25.15;;;-1.80;99.90;;;;;;5008370;28;20023;-78
2023/01/22 04:14:08;;;;;;;30.70;24.77;;;-1.80;99.90;;;;;;5024630;28;20029;-78
2023/01/22 04:16:36;;;;;;;27.70;22.73;;;-1.80;99.90;;;;;;5016077;28;20117;-78
2023/01/22 04:19:08;;;;;;;27.80;24.83;;;-1.80;99.90;;;;;;5008099;28;20049;-78
2023/01/22 04:21:51;;;;;;;26.45;23.85;;;-1.90;99.90;;;;;;5008319;28;20034;-78
2023/01/22 04:24:18;;;;;;;26.55;23.73;;;-1.90;99.90;;;;;;5007947;28;20078;-78
2023/01/22 04:26:45;;;;;;;33.40;23.77;;;-1.70;99.90;;;;;;4991892;28;20038;-78
2023/01/22 04:29:12;;;;;;;29.27;25.95;;;-1.90;99.90;;;;;;4992183;28;20026;-78
2023/01/22 04:31:38;;;;;;;27.50;23.17;;;-2.00;99.90;;;;;;4991900;28;20440;-78
2023/01/22 04:34:22;;;;;;;30.40;25.95;;;-2.00;99.90;;;;;;5008113;28;20056;-78
2023/01/22 04:37:07;;;;;;;32.03;28.08;;;-2.10;99.90;;;;;;5007926;28;20058;-78
2023/01/22 04:39:34;;;;;;;30.63;27.33;;;-2.10;99.90;;;;;;5007927;28;20046;-78
2023/01/22 04:42:00;;;;;;;31.92;25.67;;;-2.10;99.90;;;;;;5006629;28;20035;-77
2023/01/22 04:44:26;;;;;;;27.90;24.05;;;-2.20;99.90;;;;;;4991645;28;20030;-78
2023/01/22 04:46:52;;;;;;;30.48;26.42;;;-2.20;99.90;;;;;;5007820;28;20037;-78
2023/01/22 04:49:19;;;;;;;29.55;24.98;;;-2.20;99.90;;;;;;5008484;28;20105;-78
2023/01/22 04:51:45;;;;;;;38.75;27.23;;;-2.20;99.90;;;;;;4975569;28;20041;-78
2023/01/22 04:54:12;;;;;;;28.77;25.58;;;-2.30;99.90;;;;;;5007747;28;20069;-78
2023/01/22 04:56:38;;;;;;;27.88;24.90;;;-2.30;99.90;;;;;;4991530;28;20088;-78
2023/01/22 04:59:04;;;;;;;27.85;24.80;;;-2.30;99.90;;;;;;5007524;28;20493;-78
2023/01/22 05:01:30;;;;;;;29.45;25.98;;;-2.30;99.90;;;;;;5007524;28;20038;-78
2023/01/22 05:04:00;;;;;;;38.35;28.77;;;-2.30;99.90;;;;;;4995501;28;20042;-78
2023/01/22 05:06:26;;;;;;;28.95;25.92;;;-2.30;99.90;;;;;;4970808;28;20046;-78
2023/01/22 05:08:52;;;;;;;31.67;27.02;;;-2.30;99.90;;;;;;4970932;28;20107;-78
2023/01/22 05:11:18;;;;;;;32.35;27.20;;;-2.20;99.90;;;;;;4954455;28;20045;-78
2023/01/22 05:13:53;;;;;;;32.83;28.05;;;-2.20;99.90;;;;;;4970728;28;20031;-78
2023/01/22 05:16:19;;;;;;;32.65;29.00;;;-2.30;99.90;;;;;;4973735;28;20065;-78
2023/01/22 05:18:46;;;;;;;30.15;26.92;;;-2.20;99.90;;;;;;5003049;28;20103;-78
2023/01/22 05:21:11;;;;;;;31.17;25.98;;;-2.30;99.90;;;;;;4970629;28;20043;-78
2023/01/22 05:23:37;;;;;;;29.77;25.60;;;-2.30;99.90;;;;;;4954805;28;20166;-78
2023/01/22 05:26:05;;;;;;;29.23;26.10;;;-2.30;99.90;;;;;;4970547;28;20038;-78
2023/01/22 05:28:48;;;;;;;38.92;27.55;;;-2.30;99.90;;;;;;4943165;28;20042;-78
2023/01/22 05:31:37;;;;;;;32.60;27.90;;;-2.30;99.90;;;;;;4973647;28;20473;-78
2023/01/22 05:34:07;;;;;;;32.22;28.80;;;-2.30;99.90;;;;;;4970253;28;20070;-78
2023/01/22 05:36:33;;;;;;;35.60;29.15;;;-2.20;99.90;;;;;;4954401;28;20039;-78
2023/01/22 05:39:17;;;;;;;28.10;25.35;;;-2.10;99.90;;;;;;4981080;28;20097;-78
2023/01/22 05:41:43;;;;;;;33.53;26.98;;;-2.00;99.90;;;;;;5006663;28;20049;-78
2023/01/22 05:44:11;;;;;;;32.90;29.55;;;-2.00;99.90;;;;;;5006638;28;20069;-78
2023/01/22 05:46:37;;;;;;;32.95;29.50;;;-1.80;99.90;;;;;;5006392;28;20053;-78
2023/01/22 05:49:38;;;;;;;32.58;27.20;;;-1.70;99.90;;;;;;5018821;28;20038;-78
2023/01/22 05:52:09;;;;;;;31.33;27.98;;;-1.70;99.90;;;;;;5006515;28;20050;-79
2023/01/22 05:54:37;;;;;;;31.17;28.20;;;-1.60;99.90;;;;;;5006508;28;20034;-78
2023/01/22 05:57:03;;;;;;;39.28;28.42;;;-1.50;99.90;;;;;;5006504;28;20458;-78
2023/01/22 05:59:29;;;;;;;35.63;28.02;;;-1.50;99.90;;;;;;5002595;28;20026;-78
2023/01/22 06:01:59;;;;;;;29.23;25.10;;;-1.40;99.90;;;;;;4987107;28;20031;-78
2023/01/22 06:04:25;;;;;;;36.20;28.83;;;-1.40;99.90;;;;;;4986838;28;20031;-78
2023/01/22 06:06:52;;;;;;;31.38;27.65;;;-1.30;99.90;;;;;;4996291;28;20026;-78
2023/01/22 06:09:20;;;;;;;29.52;26.40;;;-1.30;99.90;;;;;;5006180;28;20027;-78
2023/01/22 06:11:46;;;;;;;30.13;25.63;;;-1.30;99.90;;;;;;4989781;28;20033;-78
2023/01/22 06:14:12;;;;;;;31.77;27.50;;;-1.30;99.90;;;;;;5006063;28;20023;-78
2023/01/22 06:16:38;;;;;;;28.17;24.20;;;-1.30;99.90;;;;;;4989943;28;20040;-78
2023/01/22 06:19:04;;;;;;;29.70;23.95;;;-1.30;99.90;;;;;;5007210;28;20030;-78
2023/01/22 06:21:51;;;;;;;27.15;24.33;;;-1.30;99.90;;;;;;4992207;28;20026;-79
2023/01/22 06:24:18;;;;;;;32.00;25.08;;;-1.20;99.90;;;;;;5005527;28;20034;-78
2023/01/22 06:26:44;;;;;;;28.23;23.83;;;-1.30;99.90;;;;;;5005663;28;20057;-79
2023/01/22 06:29:12;;;;;;;26.60;23.77;;;-1.20;99.90;;;;;;5005778;28;20089;-79
2023/01/22 06:31:39;;;;;;;27.15;24.25;;;-1.20;99.90;;;;;;5003545;28;20019;-79
2023/01/22 06:34:07;;;;;;;32.25;27.58;;;-1.10;99.90;;;;;;5004282;28;20026;-78
2023/01/22 06:36:33;;;;;;;24.35;21.92;;;-1.10;99.90;;;;;;5005475;28;20030;-78
2023/01/22 06:39:00;;;;;;;27.73;22.55;;;-1.00;99.90;;;;;;4994122;28;20050;-77
2023/01/22 06:41:54;;;;;;;25.30;22.70;;;-1.00;99.90;;;;;;5001151;28;20043;-77
2023/01/22 06:44:20;;;;;;;27.67;24.77;;;-1.00;99.90;;;;;;4985895;28;20038;-77
2023/01/22 06:46:47;;;;;;;31.67;23.63;;;-0.90;99.90;;;;;;5001962;28;20031;-77
2023/01/22 06:49:19;;;;;;;26.33;23.63;;;-0.90;99.90;;;;;;5001825;28;20022;-77
2023/01/22 06:51:45;;;;;;;33.85;24.27;;;-0.90;99.90;;;;;;4988320;28;20037;-77
2023/01/22 06:54:12;;;;;;;22.73;20.35;;;-0.90;99.90;;;;;;4988929;28;20061;-77
2023/01/22 06:56:38;;;;;;;24.17;21.63;;;-0.80;99.90;;;;;;5004831;28;20027;-78
2023/01/22 06:59:05;;;;;;;28.42;25.42;;;-1.20;99.90;;;;;;4972480;28;20125;-77
2023/01/22 07:01:30;;;;;;;23.63;21.30;;;-0.80;99.90;;;;;;5002521;28;20038;-77
2023/01/22 07:03:56;;;;;;;24.90;22.45;;;-0.70;99.90;;;;;;5004695;28;20037;-77
2023/01/22 07:06:22;;;;;;;21.33;19.25;;;-0.70;99.90;;;;;;4998887;28;20382;-77
2023/01/22 07:08:48;;;;;;;24.33;19.58;;;-0.70;99.90;;;;;;4986207;28;20453;-78
2023/01/22 07:11:15;;;;;;;23.55;21.02;;;-0.60;99.90;;;;;;4987428;28;20041;-77
2023/01/22 07:13:41;;;;;;;23.00;20.77;;;-0.70;99.90;;;;;;5005628;28;20023;-77
2023/01/22 07:16:09;;;;;;;23.75;20.30;;;-0.60;99.90;;;;;;5004750;28;20036;-78
2023/01/22 07:18:39;;;;;;;21.25;19.13;;;-0.60;99.90;;;;;;5004470;28;20057;-77
2023/01/22 07:21:05;;;;;;;24.05;20.00;;;-0.60;99.90;;;;;;5005841;28;20469;-77
2023/01/22 07:23:31;;;;;;;27.25;20.13;;;-0.60;99.90;;;;;;5004758;28;20023;-78
2023/01/22 07:25:58;;;;;;;23.27;20.80;;;-0.60;99.90;;;;;;5001225;28;20042;-77
2023/01/22 07:28:24;;;;;;;21.38;18.95;;;-0.60;99.90;;;;;;4985249;28;20038;-78
2023/01/22 07:30:49;;;;;;;27.17;21.70;;;-0.60;99.90;;;;;;4987692;28;20117;-78
2023/01/22 07:33:15;;;;;;;23.05;19.45;;;-0.60;99.90;;;;;;5004259;28;20093;-77
2023/01/22 07:35:42;;;;;;;23.05;20.25;;;-0.60;99.90;;;;;;5006826;28;20114;-77
2023/01/22 07:38:08;;;;;;;20.70;18.65;;;-0.50;99.90;;;;;;5005285;28;20023;-77
2023/01/22 07:40:34;;;;;;;21.38;19.27;;;-0.50;99.90;;;;;;5001971;28;20481;-78
2023/01/22 07:43:05;;;;;;;19.80;17.77;;;-0.50;99.90;;;;;;4984248;28;20026;-77
2023/01/22 07:45:33;;;;;;;18.88;16.98;;;-0.50;99.90;;;;;;5008343;28;20093;-77
2023/01/22 07:47:59;;;;;;;21.05;18.98;;;-0.50;99.90;;;;;;5024530;28;20065;-77
2023/01/22 07:50:28;;;;;;;23.30;19.05;;;-0.40;99.90;;;;;;5007583;28;20026;-77
2023/01/22 07:52:54;;;;;;;25.67;21.30;;;-0.40;99.90;;;;;;5008141;28;20030;-77
2023/01/22 07:55:21;;;;;;;20.42;18.15;;;-0.40;99.90;;;;;;5008202;28;20030;-77
2023/01/22 07:57:46;;;;;;;18.33;16.77;;;-0.40;99.90;;;;;;5009269;28;20033;-78
2023/01/22 08:00:14;;;;;;;20.77;18.90;;;-0.40;99.90;;;;;;5008233;28;20026;-77
2023/01/22 08:02:41;;;;;;;21.90;19.75;;;-0.30;99.90;;;;;;4968423;28;20578;-77
2023/01/22 08:05:08;;;;;;;19.70;17.27;;;-0.30;99.90;;;;;;5006734;28;20034;-77
2023/01/22 08:07:34;;;;;;;22.17;20.10;;;-0.30;99.90;;;;;;5006944;28;20046;-77
2023/01/22 08:10:00;;;;;;;25.67;19.67;;;-0.30;99.90;;;;;;5008149;28;20034;-78
2023/01/22 08:12:26;;;;;;;18.85;16.95;;;-0.20;99.90;;;;;;5006486;28;20080;-77
2023/01/22 08:14:52;;;;;;;18.33;16.58;;;-0.10;99.90;;;;;;5007135;28;20535;-77
2023/01/22 08:17:18;;;;;;;21.13;19.25;;;-0.10;99.90;;;;;;5004619;28;20023;-77
2023/01/22 08:19:44;;;;;;;20.75;16.55;;;-0.10;99.90;;;;;;5006639;28;20036;-77
2023/01/22 08:22:09;;;;;;;20.27;18.23;;;-0.10;99.90;;;;;;5008629;28;20033;-77
2023/01/22 08:24:35;;;;;;;20.35;18.25;;;0.00;99.90;;;;;;4988796;28;20073;-78
2023/01/22 08:27:01;;;;;;;21.70;17.65;;;0.00;99.90;;;;;;5001341;28;20050;-77
2023/01/22 08:29:27;;;;;;;23.88;18.75;;;0.10;99.90;;;;;;4991590;28;20109;-77
2023/01/22 08:31:53;;;;;;;21.67;19.50;;;0.00;99.90;;;;;;4993703;28;20023;-78
2023/01/22 08:34:20;;;;;;;18.58;16.73;;;0.10;99.90;;;;;;5002345;28;20070;-78
2023/01/22 08:36:46;;;;;;;20.48;18.38;;;0.10;99.90;;;;;;4991457;28;20038;-78
2023/01/22 08:39:12;;;;;;;19.60;16.98;;;0.20;99.90;;;;;;4999647;28;20046;-78
2023/01/22 08:41:39;;;;;;;22.35;20.15;;;0.20;99.90;;;;;;5005746;28;20212;-77
2023/01/22 08:44:05;;;;;;;19.92;17.95;;;0.30;99.90;;;;;;5008844;28;20038;-78
2023/01/22 08:46:31;;;;;;;21.73;18.75;;;0.30;99.90;;;;;;4990563;28;20050;-78
2023/01/22 08:48:57;;;;;;;20.67;18.58;;;0.30;99.90;;;;;;5008739;28;20058;-78
2023/01/22 08:51:25;;;;;;;19.50;17.70;;;0.30;99.90;;;;;;5008484;28;20031;-78
2023/01/22 08:53:51;;;;;;;24.02;16.60;;;0.40;99.90;;;;;;5007430;28;20030;-77
2023/01/22 08:56:17;;;;;;;20.02;18.02;;;0.30;99.90;;;;;;5007256;28;20094;-78
2023/01/22 08:58:46;;;;;;;20.77;18.67;;;0.40;99.90;;;;;;5006466;28;20034;-78
2023/01/22 09:01:18;;;;;;;20.20;18.33;;;0.40;99.90;;;;;;5006989;28;20099;-78
2023/01/22 09:03:44;;;;;;;22.23;19.67;;;0.40;99.90;;;;;;5006847;28;20069;-78
2023/01/22 09:06:10;;;;;;;20.58;18.45;;;0.30;99.90;;;;;;5007265;28;20093;-78
2023/01/22 09:08:36;;;;;;;23.98;21.50;;;0.40;99.90;;;;;;5007045;28;20019;-78
2023/01/22 09:11:04;;;;;;;23.02;17.15;;;0.40;99.90;;;;;;5006887;28;20499;-79
2023/01/22 09:13:31;;;;;;;22.35;16.52;;;0.50;99.90;;;;;;5006919;28;20165;-78
2023/01/22 09:15:57;;;;;;;21.90;19.60;;;0.50;99.90;;;;;;5006671;28;20029;-78
2023/01/22 09:18:23;;;;;;;23.00;19.48;;;0.50;99.90;;;;;;5006912;28;20034;-77
2023/01/22 09:20:49;;;;;;;20.92;18.83;;;0.50;99.90;;;;;;5006986;28;20084;-78
2023/01/22 09:23:15;;;;;;;17.92;16.17;;;0.60;99.90;;;;;;5006949;28;20515;-78
2023/01/22 09:25:41;;;;;;;21.77;19.70;;;0.70;99.90;;;;;;5008050;28;20094;-78
2023/01/22 09:28:11;;;;;;;17.25;15.55;;;0.70;99.90;;;;;;4986858;28;20098;-78
2023/01/22 09:30:41;;;;;;;21.55;18.77;;;0.80;99.90;;;;;;4997298;28;20033;-78
2023/01/22 09:33:07;;;;;;;23.77;18.17;;;0.80;99.90;;;;;;5007605;28;20081;-78
2023/01/22 09:35:33;;;;;;;19.45;17.42;;;0.80;99.90;;;;;;5007858;28;20077;-78
2023/01/22 09:38:00;;;;;;;20.38;18.42;;;0.80;99.90;;;;;;4989032;28;20121;-78
2023/01/22 09:40:29;;;;;;;22.00;19.50;;;0.80;99.90;;;;;;5003123;28;20030;-78
2023/01/22 09:43:23;;;;;;;20.80;17.63;;;0.90;99.90;;;;;;5002045;28;20026;-78
2023/01/22 09:45:54;;;;;;;19.67;16.98;;;0.90;99.90;;;;;;5006656;28;20038;-78
2023/01/22 09:48:21;;;;;;;19.65;17.25;;;0.90;99.90;;;;;;5006156;28;20026;-78
2023/01/22 09:50:47;;;;;;;19.30;16.58;;;1.00;99.90;;;;;;5006691;28;20082;-78
2023/01/22 09:53:20;;;;;;;16.98;15.15;;;1.00;99.90;;;;;;5005151;28;20022;-78
2023/01/22 09:55:50;;;;;;;19.15;17.15;;;1.10;99.90;;;;;;5007261;28;20035;-78
2023/01/22 09:58:22;;;;;;;17.90;16.20;;;1.10;99.90;;;;;;5003645;28;20030;-78
2023/01/22 10:00:52;;;;;;;18.90;15.25;;;1.20;99.90;;;;;;4988452;28;20038;-76
2023/01/22 10:03:21;;;;;;;18.42;16.85;;;1.20;99.90;;;;;;4991804;28;20033;-78
2023/01/22 10:05:56;;;;;;;16.08;14.55;;;0.80;99.90;;;;;;4989556;28;20035;-78
2023/01/22 10:08:28;;;;;;;16.02;14.65;;;1.40;99.90;;;;;;5005398;28;20090;-77
2023/01/22 10:10:53;;;;;;;21.13;16.25;;;1.30;99.90;;;;;;5007375;28;20030;-77
2023/01/22 10:13:23;;;;;;;17.55;14.18;;;1.40;99.90;;;;;;4997439;28;20050;-78
2023/01/22 10:15:53;;;;;;;15.27;13.95;;;1.50;99.90;;;;;;4986689;28;20026;-77
2023/01/22 10:18:53;;;;;;;18.33;16.35;;;1.50;99.90;;;;;;5004776;28;20046;-77
2023/01/22 10:21:22;;;;;;;14.40;13.02;;;1.50;99.90;;;;;;5003117;28;20034;-78
2023/01/22 10:23:49;;;;;;;15.15;13.57;;;1.50;99.90;;;;;;5006101;28;20042;-77
2023/01/22 10:26:23;;;;;;;15.13;13.73;;;1.50;99.90;;;;;;4989430;28;20034;-77
2023/01/22 10:28:58;;;;;;;16.33;14.75;;;1.50;99.90;;;;;;5007200;28;20086;-77
2023/01/22 10:31:33;;;;;;;15.02;13.57;;;1.60;99.90;;;;;;5005813;28;20034;-77
2023/01/22 10:34:01;;;;;;;15.05;13.60;;;1.60;99.90;;;;;;5005262;28;20038;-77
2023/01/22 10:36:29;;;;;;;14.25;12.93;;;1.60;99.90;;;;;;4989102;28;20089;-77
2023/01/22 10:39:13;;;;;;;13.52;12.38;;;1.50;99.90;;;;;;5006807;28;20135;-76
2023/01/22 10:41:40;;;;;;;13.80;12.05;;;1.40;99.90;;;;;;5005580;28;20110;-77
2023/01/22 10:44:20;;;;;;;23.95;14.65;;;1.40;99.90;;;;;;5006849;28;20115;-77
2023/01/22 10:46:48;;;;;;;15.00;13.68;;;1.50;99.90;;;;;;5021836;28;20038;-77
2023/01/22 10:49:22;;;;;;;12.40;11.20;;;1.60;99.90;;;;;;5019622;28;20041;-77
2023/01/22 10:52:05;;;;;;;14.88;13.60;;;1.50;99.90;;;;;;4989335;28;20037;-77
2023/01/22 10:54:38;;;;;;;12.90;11.70;;;1.50;99.90;;;;;;5005348;28;20054;-77
2023/01/22 10:57:04;;;;;;;15.38;13.98;;;1.60;99.90;;;;;;5005525;28;20093;-77
2023/01/22 10:59:30;;;;;;;18.00;13.88;;;1.60;99.90;;;;;;5006364;28;20034;-77
2023/01/22 11:02:16;;;;;;;14.02;12.25;;;1.60;99.90;;;;;;5002475;28;20501;-77
2023/01/22 11:04:42;;;;;;;13.90;12.55;;;1.70;99.90;;;;;;5004397;28;20026;-76
2023/01/22 11:07:13;;;;;;;15.55;14.05;;;1.80;99.90;;;;;;4971166;28;20042;-77
2023/01/22 11:10:18;;;;;;;15.48;13.38;;;1.90;99.90;;;;;;4987373;28;20026;-79
2023/01/22 11:12:49;;;;;;;12.38;11.20;;;2.00;99.90;;;;;;5006065;28;20094;-78
2023/01/22 11:15:21;;;;;;;12.80;11.50;;;1.90;99.90;;;;;;5004846;28;20053;-78
2023/01/22 11:17:56;;;;;;;15.60;12.13;;;2.00;99.90;;;;;;5005837;28;20033;-78
2023/01/22 11:20:27;;;;;;;13.93;12.73;;;2.00;99.90;;;;;;5004824;28;20030;-78
2023/01/22 11:23:08;;;;;;;14.02;12.70;;;2.00;99.90;;;;;;4979948;28;20026;-77
2023/01/22 11:25:43;;;;;;;11.25;10.35;;;2.00;99.90;;;;;;5004871;28;20034;-77
2023/01/22 11:28:42;;;;;;;12.00;10.85;;;1.90;99.90;;;;;;5004460;28;20030;-77
2023/01/22 11:31:24;;;;;;;13.77;12.20;;;2.00;99.90;;;;;;4983122;28;20058;-78
2023/01/22 11:34:21;;;;;;;10.98;9.85;;;2.00;99.90;;;;;;4998232;28;20031;-77
2023/01/22 11:37:12;;;;;;;13.63;12.25;;;2.10;99.90;;;;;;5001240;28;20034;-77
2023/01/22 11:39:47;;;;;;;14.77;11.10;;;2.10;99.90;;;;;;4988482;28;20054;-77
2023/01/22 11:42:28;;;;;;;11.02;10.15;;;2.10;99.90;;;;;;4991198;28;20031;-77
2023/01/22 11:45:20;;;;;;;19.33;11.63;;;2.20;99.90;;;;;;5004484;28;20030;-77
2023/01/22 11:47:49;;;;;;;11.65;10.55;;;2.20;99.90;;;;;;5004785;28;20037;-77
2023/01/22 11:50:41;;;;;;;12.77;11.35;;;2.20;99.90;;;;;;4988501;28;20026;-77
2023/01/22 11:53:40;;;;;;;11.30;10.23;;;2.20;99.90;;;;;;5001710;28;20026;-77
2023/01/22 11:56:38;;;;;;;11.38;10.27;;;2.20;99.90;;;;;;5004506;28;20061;-77
2023/01/22 11:59:29;;;;;;;11.90;10.60;;;5.00;99.90;;;;;;4995350;28;20022;-76
2023/01/22 12:02:49;;;;;;;11.25;10.20;;;2.30;99.90;;;;;;5003809;28;20031;-77
2023/01/22 12:05:15;;;;;;;;;;;2.40;99.90;;;;;;5004348;28;20091;-77
2023/01/22 12:08:32;;;;;;;10.93;9.82;;;2.40;99.90;;;;;;5006039;28;19910;-77
2023/01/22 12:11:11;;;;;;;13.18;10.80;;;2.50;99.90;;;;;;5011105;28;20057;-77
2023/01/22 12:13:57;;;;;;;14.40;11.30;;;2.40;99.90;;;;;;5005921;28;20053;-77
2023/01/22 12:17:00;;;;;;;12.23;10.40;;;2.50;99.90;;;;;;5006935;28;20082;-77
2023/01/22 12:19:36;;;;;;;13.32;11.88;;;2.40;99.90;;;;;;4989083;28;20030;-77
2023/01/22 12:22:33;;;;;;;11.38;10.35;;;2.60;99.90;;;;;;5009398;28;20030;-78
2023/01/22 12:25:17;;;;;;;11.38;10.32;;;2.70;99.90;;;;;;5003564;28;20033;-77
2023/01/22 12:27:53;;;;;;;14.55;12.43;;;2.90;99.90;;;;;;5011044;28;20169;-77
2023/01/22 12:30:25;;;;;;;10.30;9.38;;;3.20;99.90;;;;;;5009734;28;20504;-77
2023/01/22 12:32:58;;;;;;;10.80;9.90;;;3.30;99.90;;;;;;5007704;28;20109;-78
2023/01/22 12:35:30;;;;;;;10.50;9.40;;;3.60;99.90;;;;;;5007769;28;20037;-77
2023/01/22 12:38:11;;;;;;;12.15;10.45;;;3.50;99.90;;;;;;5007987;28;20042;-77
2023/01/22 12:41:08;;;;;;;9.20;8.25;;;3.30;99.90;;;;;;5024210;28;20038;-77
2023/01/22 12:43:49;;;;;;;11.25;7.90;;;3.00;99.90;;;;;;5007943;28;20053;-77
2023/01/22 12:46:37;;;;;;;8.25;7.65;;;2.90;99.90;;;;;;5007812;28;20037;-77
2023/01/22 12:49:11;;;;;;;9.85;8.90;;;2.60;99.90;;;;;;5008082;28;20030;-76
2023/01/22 12:51:50;;;;;;;11.07;10.07;;;2.50;99.90;;;;;;5007499;28;20057;-76
2023/01/22 12:54:26;;;;;;;10.35;9.35;;;2.50;99.90;;;;;;4991541;28;20030;-77
2023/01/22 12:57:10;;;;;;;10.80;9.80;;;2.50;99.90;;;;;;4990953;28;20097;-76
2023/01/22 12:59:46;;;;;;;9.98;9.15;;;2.40;99.90;;;;;;5008907;28;20042;-77